sensor_id;sensor_type;location;lat;lon;timestamp;temperature;humidity
51719;DHT22;37795;53.236;5.704;2023-07-29T14:32:38;23.50;55.90
51719;DHT22;37795;53.236;5.704;2023-07-29T14:35:04;23.50;56.20
51719;DHT22;37795;53.236;5.704;2023-07-29T14:37:31;23.00;56.60
51719;DHT22;37795;53.236;5.704;2023-07-29T14:40:00;22.90;56.20
51719;DHT22;37795;53.236;5.704;2023-07-29T14:42:27;22.60;58.30
51719;DHT22;37795;53.236;5.704;2023-07-29T14:44:53;22.50;59.00
51719;DHT22;37795;53.236;5.704;2023-07-29T14:47:19;22.60;58.50
51719;DHT22;37795;53.236;5.704;2023-07-29T14:49:45;22.60;59.70
51719;DHT22;37795;53.236;5.704;2023-07-29T14:52:11;22.70;60.20
51719;DHT22;37795;53.236;5.704;2023-07-29T14:54:36;22.90;59.90
51719;DHT22;37795;53.236;5.704;2023-07-29T14:57:04;22.70;59.40
51719;DHT22;37795;53.236;5.704;2023-07-29T14:59:30;23.10;60.80
51719;DHT22;37795;53.236;5.704;2023-07-29T15:01:56;22.50;58.00
51719;DHT22;37795;53.236;5.704;2023-07-29T15:04:22;22.40;59.10
51719;DHT22;37795;53.236;5.704;2023-07-29T15:06:47;22.50;59.00
51719;DHT22;37795;53.236;5.704;2023-07-29T15:09:13;22.40;57.90
51719;DHT22;37795;53.236;5.704;2023-07-29T15:11:39;22.50;58.10
51719;DHT22;37795;53.236;5.704;2023-07-29T15:14:06;22.20;59.30
51719;DHT22;37795;53.236;5.704;2023-07-29T15:16:32;22.30;58.90
51719;DHT22;37795;53.236;5.704;2023-07-29T15:18:59;22.30;60.50
51719;DHT22;37795;53.236;5.704;2023-07-29T15:21:25;22.20;59.10
51719;DHT22;37795;53.236;5.704;2023-07-29T15:23:51;22.20;59.20
51719;DHT22;37795;53.236;5.704;2023-07-29T15:26:16;21.90;59.90
51719;DHT22;37795;53.236;5.704;2023-07-29T15:28:42;21.90;60.00
51719;DHT22;37795;53.236;5.704;2023-07-29T15:31:08;21.90;60.70
51719;DHT22;37795;53.236;5.704;2023-07-29T15:33:34;21.70;59.20
51719;DHT22;37795;53.236;5.704;2023-07-29T15:36:02;21.40;60.00
51719;DHT22;37795;53.236;5.704;2023-07-29T15:38:28;21.30;61.30
51719;DHT22;37795;53.236;5.704;2023-07-29T15:40:54;21.40;60.50
51719;DHT22;37795;53.236;5.704;2023-07-29T15:43:19;21.50;62.20
51719;DHT22;37795;53.236;5.704;2023-07-29T15:45:45;21.60;61.50
51719;DHT22;37795;53.236;5.704;2023-07-29T15:48:11;21.40;62.60
51719;DHT22;37795;53.236;5.704;2023-07-29T15:50:37;21.50;62.80
51719;DHT22;37795;53.236;5.704;2023-07-29T15:53:03;21.40;62.60
51719;DHT22;37795;53.236;5.704;2023-07-29T15:55:29;21.30;63.60
51719;DHT22;37795;53.236;5.704;2023-07-29T15:57:55;21.30;63.80
51719;DHT22;37795;53.236;5.704;2023-07-29T16:00:20;21.20;64.60
51719;DHT22;37795;53.236;5.704;2023-07-29T16:02:48;20.90;64.80
51719;DHT22;37795;53.236;5.704;2023-07-29T16:05:13;21.00;64.30
51719;DHT22;37795;53.236;5.704;2023-07-29T16:07:39;21.10;65.80
51719;DHT22;37795;53.236;5.704;2023-07-29T16:10:06;21.20;65.50
51719;DHT22;37795;53.236;5.704;2023-07-29T16:12:32;21.20;64.80
51719;DHT22;37795;53.236;5.704;2023-07-29T16:15:05;21.20;66.10
51719;DHT22;37795;53.236;5.704;2023-07-29T16:17:31;21.10;65.70
51719;DHT22;37795;53.236;5.704;2023-07-29T16:19:59;21.20;65.70
51719;DHT22;37795;53.236;5.704;2023-07-29T16:22:25;21.20;66.00
51719;DHT22;37795;53.236;5.704;2023-07-29T16:24:51;21.30;65.60
51719;DHT22;37795;53.236;5.704;2023-07-29T16:27:17;21.30;65.50
51719;DHT22;37795;53.236;5.704;2023-07-29T16:29:43;21.30;66.00
51719;DHT22;37795;53.236;5.704;2023-07-29T16:32:09;21.20;66.20
51719;DHT22;37795;53.236;5.704;2023-07-29T16:34:35;21.10;66.30
51719;DHT22;37795;53.236;5.704;2023-07-29T16:37:01;21.00;66.40
51719;DHT22;37795;53.236;5.704;2023-07-29T16:39:27;21.00;66.90
51719;DHT22;37795;53.236;5.704;2023-07-29T16:41:53;21.30;66.80
51719;DHT22;37795;53.236;5.704;2023-07-29T16:44:18;21.30;66.70
51719;DHT22;37795;53.236;5.704;2023-07-29T16:46:45;21.30;66.20
51719;DHT22;37795;53.236;5.704;2023-07-29T16:49:10;21.30;66.80
51719;DHT22;37795;53.236;5.704;2023-07-29T16:51:36;21.10;66.60
51719;DHT22;37795;53.236;5.704;2023-07-29T16:54:02;20.80;67.60
51719;DHT22;37795;53.236;5.704;2023-07-29T16:56:28;20.60;68.30
51719;DHT22;37795;53.236;5.704;2023-07-29T16:58:54;20.50;69.40
51719;DHT22;37795;53.236;5.704;2023-07-29T17:01:19;20.70;69.70
51719;DHT22;37795;53.236;5.704;2023-07-29T17:03:45;20.90;68.30
51719;DHT22;37795;53.236;5.704;2023-07-29T17:06:11;21.00;69.20
51719;DHT22;37795;53.236;5.704;2023-07-29T17:08:36;20.70;69.90
51719;DHT22;37795;53.236;5.704;2023-07-29T17:11:02;20.40;69.70
51719;DHT22;37795;53.236;5.704;2023-07-29T17:13:28;20.40;69.60
51719;DHT22;37795;53.236;5.704;2023-07-29T17:15:54;20.40;69.10
51719;DHT22;37795;53.236;5.704;2023-07-29T17:18:19;20.50;69.30
51719;DHT22;37795;53.236;5.704;2023-07-29T17:20:45;20.30;69.30
51719;DHT22;37795;53.236;5.704;2023-07-29T17:23:11;20.10;69.60
51719;DHT22;37795;53.236;5.704;2023-07-29T17:25:36;20.00;69.40
51719;DHT22;37795;53.236;5.704;2023-07-29T17:28:02;20.20;69.90
51719;DHT22;37795;53.236;5.704;2023-07-29T17:30:31;20.10;69.90
51719;DHT22;37795;53.236;5.704;2023-07-29T17:32:57;20.20;70.00
51719;DHT22;37795;53.236;5.704;2023-07-29T17:35:23;20.20;69.10
51719;DHT22;37795;53.236;5.704;2023-07-29T17:37:48;20.10;69.30
51719;DHT22;37795;53.236;5.704;2023-07-29T17:40:14;20.00;69.10
51719;DHT22;37795;53.236;5.704;2023-07-29T17:42:40;19.90;69.80
51719;DHT22;37795;53.236;5.704;2023-07-29T17:45:06;19.80;69.50
51719;DHT22;37795;53.236;5.704;2023-07-29T17:47:32;19.60;70.80
51719;DHT22;37795;53.236;5.704;2023-07-29T17:49:58;19.60;70.60
51719;DHT22;37795;53.236;5.704;2023-07-29T17:52:23;19.60;70.40
51719;DHT22;37795;53.236;5.704;2023-07-29T17:54:49;19.70;70.80
51719;DHT22;37795;53.236;5.704;2023-07-29T17:57:15;19.80;70.60
51719;DHT22;37795;53.236;5.704;2023-07-29T17:59:41;19.80;70.90
51719;DHT22;37795;53.236;5.704;2023-07-29T18:02:06;19.80;70.70
51719;DHT22;37795;53.236;5.704;2023-07-29T18:04:32;19.80;71.40
51719;DHT22;37795;53.236;5.704;2023-07-29T18:06:58;19.80;70.90
51719;DHT22;37795;53.236;5.704;2023-07-29T18:09:24;19.90;71.40
51719;DHT22;37795;53.236;5.704;2023-07-29T18:11:50;19.80;71.20
51719;DHT22;37795;53.236;5.704;2023-07-29T18:14:15;19.90;71.20
51719;DHT22;37795;53.236;5.704;2023-07-29T18:16:44;19.90;71.60
51719;DHT22;37795;53.236;5.704;2023-07-29T18:19:10;19.90;71.60
51719;DHT22;37795;53.236;5.704;2023-07-29T18:21:35;19.90;71.40
51719;DHT22;37795;53.236;5.704;2023-07-29T18:24:01;19.70;71.20
51719;DHT22;37795;53.236;5.704;2023-07-29T18:26:27;19.60;71.50
51719;DHT22;37795;53.236;5.704;2023-07-29T18:28:53;19.60;71.70
51719;DHT22;37795;53.236;5.704;2023-07-29T18:31:19;19.40;72.10
51719;DHT22;37795;53.236;5.704;2023-07-29T18:33:44;19.30;72.30
51719;DHT22;37795;53.236;5.704;2023-07-29T18:36:10;19.30;72.90
51719;DHT22;37795;53.236;5.704;2023-07-29T18:38:35;19.30;72.80
51719;DHT22;37795;53.236;5.704;2023-07-29T18:41:02;19.30;72.70
51719;DHT22;37795;53.236;5.704;2023-07-29T18:43:28;19.30;72.90
51719;DHT22;37795;53.236;5.704;2023-07-29T18:45:54;19.30;72.80
51719;DHT22;37795;53.236;5.704;2023-07-29T18:55:00;19.50;73.10
51719;DHT22;37795;53.236;5.704;2023-07-29T18:57:26;19.20;72.90
51719;DHT22;37795;53.236;5.704;2023-07-29T18:59:52;19.20;73.20
51719;DHT22;37795;53.236;5.704;2023-07-29T19:02:18;19.20;73.40
51719;DHT22;37795;53.236;5.704;2023-07-29T19:04:44;19.10;73.90
51719;DHT22;37795;53.236;5.704;2023-07-29T19:07:13;19.00;74.50
51719;DHT22;37795;53.236;5.704;2023-07-29T19:09:42;19.00;74.60
51719;DHT22;37795;53.236;5.704;2023-07-29T19:12:09;19.00;74.70
51719;DHT22;37795;53.236;5.704;2023-07-29T19:14:35;19.00;74.60
51719;DHT22;37795;53.236;5.704;2023-07-29T19:17:01;19.00;74.80
51719;DHT22;37795;53.236;5.704;2023-07-29T19:19:27;18.90;74.80
51719;DHT22;37795;53.236;5.704;2023-07-29T19:21:53;18.90;74.90
51719;DHT22;37795;53.236;5.704;2023-07-29T19:24:18;18.90;74.80
51719;DHT22;37795;53.236;5.704;2023-07-29T19:26:44;18.90;75.10
51719;DHT22;37795;53.236;5.704;2023-07-29T19:29:10;18.80;74.80
51719;DHT22;37795;53.236;5.704;2023-07-29T19:31:38;18.80;75.30
51719;DHT22;37795;53.236;5.704;2023-07-29T19:34:03;18.70;75.50
51719;DHT22;37795;53.236;5.704;2023-07-29T19:36:29;18.80;75.60
51719;DHT22;37795;53.236;5.704;2023-07-29T19:38:58;18.80;75.50
51719;DHT22;37795;53.236;5.704;2023-07-29T19:41:24;18.60;76.20
51719;DHT22;37795;53.236;5.704;2023-07-29T19:43:51;18.60;76.50
51719;DHT22;37795;53.236;5.704;2023-07-29T19:46:19;18.60;76.20
51719;DHT22;37795;53.236;5.704;2023-07-29T19:48:45;18.50;76.60
51719;DHT22;37795;53.236;5.704;2023-07-29T19:51:12;18.50;76.60
51719;DHT22;37795;53.236;5.704;2023-07-29T19:53:38;18.40;77.10
51719;DHT22;37795;53.236;5.704;2023-07-29T19:56:04;18.30;76.80
51719;DHT22;37795;53.236;5.704;2023-07-29T19:58:29;18.20;77.20
51719;DHT22;37795;53.236;5.704;2023-07-29T20:00:55;18.20;77.20
51719;DHT22;37795;53.236;5.704;2023-07-29T20:03:21;18.10;77.50
51719;DHT22;37795;53.236;5.704;2023-07-29T20:05:46;18.10;77.50
51719;DHT22;37795;53.236;5.704;2023-07-29T20:08:12;18.10;77.70
51719;DHT22;37795;53.236;5.704;2023-07-29T20:10:38;18.00;77.90
51719;DHT22;37795;53.236;5.704;2023-07-29T20:13:04;18.00;78.00
51719;DHT22;37795;53.236;5.704;2023-07-29T20:15:30;17.80;78.70
51719;DHT22;37795;53.236;5.704;2023-07-29T20:17:56;17.80;79.00
51719;DHT22;37795;53.236;5.704;2023-07-29T20:20:22;17.80;78.90
51719;DHT22;37795;53.236;5.704;2023-07-29T20:22:47;17.70;78.80
51719;DHT22;37795;53.236;5.704;2023-07-29T20:25:13;17.70;79.40
51719;DHT22;37795;53.236;5.704;2023-07-29T20:27:39;17.70;79.10
51719;DHT22;37795;53.236;5.704;2023-07-29T20:30:06;17.70;79.20
51719;DHT22;37795;53.236;5.704;2023-07-29T20:32:32;17.60;79.30
51719;DHT22;37795;53.236;5.704;2023-07-29T20:34:58;17.60;79.30
51719;DHT22;37795;53.236;5.704;2023-07-29T20:37:24;17.60;79.10
51719;DHT22;37795;53.236;5.704;2023-07-29T20:39:49;17.50;79.10
51719;DHT22;37795;53.236;5.704;2023-07-29T20:42:15;17.50;79.60
51719;DHT22;37795;53.236;5.704;2023-07-29T20:44:41;17.50;79.50
51719;DHT22;37795;53.236;5.704;2023-07-29T20:47:06;17.40;79.70
51719;DHT22;37795;53.236;5.704;2023-07-29T20:49:33;17.40;79.30
51719;DHT22;37795;53.236;5.704;2023-07-29T20:51:59;17.30;79.70
51719;DHT22;37795;53.236;5.704;2023-07-29T20:54:24;17.30;79.90
51719;DHT22;37795;53.236;5.704;2023-07-29T20:56:50;17.30;79.90
51719;DHT22;37795;53.236;5.704;2023-07-29T20:59:16;17.30;79.50
51719;DHT22;37795;53.236;5.704;2023-07-29T21:01:41;17.30;79.90
51719;DHT22;37795;53.236;5.704;2023-07-29T21:04:08;17.20;79.70
51719;DHT22;37795;53.236;5.704;2023-07-29T21:06:35;17.20;79.70
51719;DHT22;37795;53.236;5.704;2023-07-29T21:09:02;17.10;79.70
51719;DHT22;37795;53.236;5.704;2023-07-29T21:11:29;17.00;79.80
51719;DHT22;37795;53.236;5.704;2023-07-29T21:13:55;17.10;79.60
51719;DHT22;37795;53.236;5.704;2023-07-29T21:16:21;17.00;79.50
51719;DHT22;37795;53.236;5.704;2023-07-29T21:18:47;17.00;79.70
51719;DHT22;37795;53.236;5.704;2023-07-29T21:21:13;17.00;79.50
51719;DHT22;37795;53.236;5.704;2023-07-29T21:23:39;16.90;79.90
51719;DHT22;37795;53.236;5.704;2023-07-29T21:26:04;16.90;79.80
51719;DHT22;37795;53.236;5.704;2023-07-29T21:28:30;16.90;80.10
51719;DHT22;37795;53.236;5.704;2023-07-29T21:30:56;16.90;80.00
51719;DHT22;37795;53.236;5.704;2023-07-29T21:33:22;16.70;80.30
51719;DHT22;37795;53.236;5.704;2023-07-29T21:35:48;16.70;80.90
51719;DHT22;37795;53.236;5.704;2023-07-29T21:38:14;16.50;81.60
51719;DHT22;37795;53.236;5.704;2023-07-29T21:40:40;16.50;81.70
51719;DHT22;37795;53.236;5.704;2023-07-29T21:43:06;16.60;81.70
51719;DHT22;37795;53.236;5.704;2023-07-29T21:45:32;16.60;81.40
51719;DHT22;37795;53.236;5.704;2023-07-29T21:55:00;16.90;80.90
51719;DHT22;37795;53.236;5.704;2023-07-29T21:57:26;16.60;81.60
51719;DHT22;37795;53.236;5.704;2023-07-29T21:59:52;16.70;81.40
51719;DHT22;37795;53.236;5.704;2023-07-29T22:02:17;16.70;81.30
51719;DHT22;37795;53.236;5.704;2023-07-29T22:04:43;16.80;81.00
51719;DHT22;37795;53.236;5.704;2023-07-29T22:07:09;16.70;81.00
51719;DHT22;37795;53.236;5.704;2023-07-29T22:09:35;16.70;81.10
51719;DHT22;37795;53.236;5.704;2023-07-29T22:12:01;16.70;81.00
51719;DHT22;37795;53.236;5.704;2023-07-29T22:14:27;16.80;81.00
51719;DHT22;37795;53.236;5.704;2023-07-29T22:16:53;16.80;80.90
51719;DHT22;37795;53.236;5.704;2023-07-29T22:19:19;16.70;81.00
51719;DHT22;37795;53.236;5.704;2023-07-29T22:21:45;16.70;81.10
51719;DHT22;37795;53.236;5.704;2023-07-29T22:24:11;16.60;81.60
51719;DHT22;37795;53.236;5.704;2023-07-29T22:26:37;16.60;81.80
51719;DHT22;37795;53.236;5.704;2023-07-29T22:29:03;16.60;82.00
51719;DHT22;37795;53.236;5.704;2023-07-29T22:31:28;16.60;82.00
51719;DHT22;37795;53.236;5.704;2023-07-29T22:33:54;16.70;82.10
51719;DHT22;37795;53.236;5.704;2023-07-29T22:36:20;16.70;82.20
51719;DHT22;37795;53.236;5.704;2023-07-29T22:38:45;16.60;82.40
51719;DHT22;37795;53.236;5.704;2023-07-29T22:41:11;16.60;82.70
51719;DHT22;37795;53.236;5.704;2023-07-29T22:43:37;16.60;82.70
51719;DHT22;37795;53.236;5.704;2023-07-29T22:46:03;16.70;82.80
51719;DHT22;37795;53.236;5.704;2023-07-29T22:48:29;16.70;82.70
51719;DHT22;37795;53.236;5.704;2023-07-29T22:50:55;16.70;82.70
51719;DHT22;37795;53.236;5.704;2023-07-29T22:53:21;16.70;82.80
51719;DHT22;37795;53.236;5.704;2023-07-29T22:55:48;16.70;82.80
51719;DHT22;37795;53.236;5.704;2023-07-29T22:58:15;16.60;83.10
51719;DHT22;37795;53.236;5.704;2023-07-29T23:00:42;16.60;83.60
51719;DHT22;37795;53.236;5.704;2023-07-29T23:03:10;16.50;83.80
51719;DHT22;37795;53.236;5.704;2023-07-29T23:05:36;16.50;83.90
51719;DHT22;37795;53.236;5.704;2023-07-29T23:08:02;16.50;84.10
51719;DHT22;37795;53.236;5.704;2023-07-29T23:10:29;16.50;84.00
51719;DHT22;37795;53.236;5.704;2023-07-29T23:12:55;16.50;84.00
51719;DHT22;37795;53.236;5.704;2023-07-29T23:15:20;16.50;83.90
51719;DHT22;37795;53.236;5.704;2023-07-29T23:17:46;16.50;83.80
51719;DHT22;37795;53.236;5.704;2023-07-29T23:20:12;16.50;83.60
51719;DHT22;37795;53.236;5.704;2023-07-29T23:22:37;16.40;83.50
51719;DHT22;37795;53.236;5.704;2023-07-29T23:25:03;16.40;83.50
51719;DHT22;37795;53.236;5.704;2023-07-29T23:27:29;16.40;83.30
51719;DHT22;37795;53.236;5.704;2023-07-29T23:29:55;16.40;83.20
51719;DHT22;37795;53.236;5.704;2023-07-29T23:32:22;16.30;83.20
51719;DHT22;37795;53.236;5.704;2023-07-29T23:34:48;16.30;83.30
51719;DHT22;37795;53.236;5.704;2023-07-29T23:37:14;16.30;83.30
51719;DHT22;37795;53.236;5.704;2023-07-29T23:39:39;16.20;83.30
51719;DHT22;37795;53.236;5.704;2023-07-29T23:42:05;16.20;83.20
51719;DHT22;37795;53.236;5.704;2023-07-29T23:44:31;16.20;83.30
51719;DHT22;37795;53.236;5.704;2023-07-29T23:46:56;16.20;83.20
51719;DHT22;37795;53.236;5.704;2023-07-29T23:49:23;16.10;83.20
51719;DHT22;37795;53.236;5.704;2023-07-29T23:51:49;16.10;83.20
51719;DHT22;37795;53.236;5.704;2023-07-29T23:54:15;16.10;82.90
51719;DHT22;37795;53.236;5.704;2023-07-29T23:56:41;16.00;83.20
51719;DHT22;37795;53.236;5.704;2023-07-29T23:59:06;16.00;83.20
